Time;durP1;ratioP1;P1;durP2;ratioP2;P2;SDS_P1;SDS_P2;PMS_P1;PMS_P2;Temp;Humidity;BMP_temperature;BMP_pressure;BME280_temperature;BME280_humidity;BME280_pressure;Samples;Min_cycle;Max_cycle;Signal;HPM_P1;HPM_P2
2021/01/24 05:32:17;;;;;;;1999.90;999.90;;;3.10;99.90;;;;;;4886201;29;20039;-95
2021/01/24 05:39:34;;;;;;;1999.90;999.90;;;3.10;99.90;;;;;;4856081;29;20047;-96
2021/01/24 05:54:03;;;;;;;1999.90;999.90;;;3.00;99.90;;;;;;4967618;28;20036;-95
2021/01/24 06:00:36;;;;;;;1999.90;999.90;;;3.00;99.90;;;;;;4998569;28;20445;-95
2021/01/24 06:33:11;;;;;;;1999.90;999.90;;;3.00;99.90;;;;;;4899294;29;20052;-95
2021/01/24 06:36:06;;;;;;;1999.90;999.90;;;3.00;99.90;;;;;;4965218;29;20055;-95
2021/01/24 06:39:00;;;;;;;1999.90;999.90;;;3.00;99.90;;;;;;4961125;29;20182;-96
2021/01/24 06:42:05;;;;;;;;;;;;;;;;;;;;;
2021/01/24 06:48:11;;;;;;;1999.90;999.90;;;2.90;99.90;;;;;;5003836;28;20054;-95
2021/01/24 07:02:48;;;;;;;1999.90;999.90;;;2.90;99.90;;;;;;4962978;28;20078;-94
2021/01/24 07:05:28;;;;;;;1999.90;999.90;;;2.90;99.90;;;;;;4996150;28;20476;-94
2021/01/24 07:08:42;;;;;;;1999.90;999.90;;;2.90;99.90;;;;;;4996134;28;20520;-95
2021/01/24 07:12:05;;;;;;;1999.90;999.90;;;2.90;99.90;;;;;;4996396;28;20057;-94
2021/01/24 07:25:15;;;;;;;1999.90;999.90;;;2.70;99.90;;;;;;5005142;28;20057;-94
2021/01/24 07:31:06;;;;;;;1999.90;999.90;;;2.70;99.90;;;;;;5015761;28;20054;-94
2021/01/24 07:34:06;;;;;;;1999.90;999.90;;;2.60;99.90;;;;;;5015886;28;20050;-95
2021/01/24 07:36:47;;;;;;;1999.90;999.90;;;2.60;99.90;;;;;;5015208;28;20404;-95
2021/01/24 07:39:20;;;;;;;1999.90;999.90;;;2.60;99.90;;;;;;5016068;28;20061;-95
2021/01/24 07:42:08;;;;;;;1999.90;999.90;;;2.60;99.90;;;;;;5015309;28;20404;-95
2021/01/24 07:44:52;;;;;;;1999.90;999.90;;;2.60;99.90;;;;;;5013979;28;20057;-93
2021/01/24 07:47:51;;;;;;;1999.90;999.90;;;2.60;99.90;;;;;;5016048;28;20054;-94
2021/01/24 07:50:38;;;;;;;1999.90;999.90;;;2.70;99.90;;;;;;5015042;28;20062;-95
2021/01/24 07:53:13;;;;;;;1999.90;999.90;;;2.70;99.90;;;;;;5016164;28;20058;-93
2021/01/24 07:55:51;;;;;;;1999.90;999.90;;;2.60;99.90;;;;;;5016089;28;20312;-94
2021/01/24 07:58:23;;;;;;;1999.90;999.90;;;2.60;99.90;;;;;;5016437;28;20073;-93
2021/01/24 08:00:53;;;;;;;1999.90;999.90;;;2.50;99.90;;;;;;5015735;28;20066;-94
2021/01/24 08:03:48;;;;;;;1999.90;999.90;;;2.50;99.90;;;;;;5015592;28;20501;-94
2021/01/24 08:06:37;;;;;;;1999.90;999.90;;;2.40;99.90;;;;;;5016525;28;20058;-93
2021/01/24 08:09:17;;;;;;;1999.90;999.90;;;2.40;99.90;;;;;;5015739;28;20058;-94
2021/01/24 08:11:48;;;;;;;1999.90;999.90;;;2.40;99.90;;;;;;5015248;28;20054;-94
2021/01/24 08:14:17;;;;;;;1999.90;999.90;;;2.30;99.90;;;;;;5015905;28;20065;-93
2021/01/24 08:16:50;;;;;;;1999.90;999.90;;;2.30;99.90;;;;;;5016502;28;20084;-94
2021/01/24 08:19:20;;;;;;;1999.90;999.90;;;2.20;99.90;;;;;;5020149;28;20065;-93
2021/01/24 08:21:54;;;;;;;1999.90;999.90;;;2.20;99.90;;;;;;5019750;28;20078;-93
2021/01/24 08:24:28;;;;;;;1999.90;999.90;;;2.20;99.90;;;;;;5019557;28;20349;-95
2021/01/24 08:26:57;;;;;;;1999.90;999.90;;;2.20;99.90;;;;;;5019615;28;20056;-94
2021/01/24 08:29:35;;;;;;;1999.90;999.90;;;2.20;99.90;;;;;;5018937;28;20069;-94
2021/01/24 08:35:24;;;;;;;1999.90;999.90;;;2.30;99.90;;;;;;5018865;28;20062;-94
2021/01/24 08:37:58;;;;;;;1999.90;999.90;;;2.40;99.90;;;;;;5017961;28;20046;-93
2021/01/24 08:41:00;;;;;;;1999.90;999.90;;;2.40;99.90;;;;;;5019112;28;20061;-92
2021/01/24 08:43:30;;;;;;;1999.90;999.90;;;2.40;99.90;;;;;;5019450;28;20057;-94
2021/01/24 08:46:34;;;;;;;1999.90;999.90;;;2.50;99.90;;;;;;5018783;28;20054;-93
2021/01/24 08:49:18;;;;;;;1999.90;999.90;;;2.40;99.90;;;;;;5019286;28;20139;-95
2021/01/24 08:52:32;;;;;;;1999.90;999.90;;;2.50;99.90;;;;;;5018577;28;20076;-94
2021/01/24 08:55:11;;;;;;;1999.90;999.90;;;2.50;99.90;;;;;;5019103;28;20054;-94
2021/01/24 08:58:29;;;;;;;1999.90;999.90;;;2.50;99.90;;;;;;5018639;28;20104;-95
2021/01/24 09:01:13;;;;;;;1999.90;999.90;;;2.60;99.90;;;;;;5018458;28;20168;-95
2021/01/24 09:03:52;;;;;;;1999.90;999.90;;;2.50;99.90;;;;;;5019050;28;20077;-94
2021/01/24 09:06:29;;;;;;;1999.90;999.90;;;2.60;99.90;;;;;;5018964;28;20137;-93
2021/01/24 09:09:06;;;;;;;1999.90;999.90;;;2.60;99.90;;;;;;5017979;28;20527;-95
2021/01/24 09:11:51;;;;;;;1999.90;999.90;;;2.50;99.90;;;;;;5017709;28;20124;-95
2021/01/24 09:14:30;;;;;;;1999.90;999.90;;;2.50;99.90;;;;;;5019066;28;20146;-94
2021/01/24 09:17:03;;;;;;;1999.90;999.90;;;2.50;99.90;;;;;;5018240;28;20148;-94
2021/01/24 09:19:36;;;;;;;1999.90;999.90;;;2.40;99.90;;;;;;5017713;28;20050;-95
2021/01/24 09:22:18;;;;;;;1999.90;999.90;;;2.40;99.90;;;;;;5018840;28;20088;-95
2021/01/24 09:24:59;;;;;;;1999.90;999.90;;;2.40;99.90;;;;;;5017875;28;20053;-95
2021/01/24 09:27:35;;;;;;;1999.90;999.90;;;2.40;99.90;;;;;;5017771;28;20054;-95
2021/01/24 09:30:24;;;;;;;1999.90;999.90;;;2.40;99.90;;;;;;5017334;28;20412;-95
2021/01/24 09:32:54;;;;;;;1999.90;999.90;;;2.40;99.90;;;;;;5017588;28;20141;-95
2021/01/24 09:35:26;;;;;;;1999.90;999.90;;;2.50;99.90;;;;;;5017841;28;20468;-94
2021/01/24 09:37:54;;;;;;;1999.90;999.90;;;2.50;99.90;;;;;;5017806;28;20059;-94
2021/01/24 09:40:28;;;;;;;1999.90;999.90;;;2.50;99.90;;;;;;5017375;28;20074;-94
2021/01/24 09:42:56;;;;;;;1999.90;999.90;;;2.50;99.90;;;;;;5018128;28;20145;-94
2021/01/24 09:45:30;;;;;;;1999.90;999.90;;;2.60;99.90;;;;;;5018241;28;20458;-95
2021/01/24 09:47:58;;;;;;;1999.90;999.90;;;2.60;99.90;;;;;;5017962;28;20050;-94
2021/01/24 09:50:29;;;;;;;1999.90;999.90;;;2.60;99.90;;;;;;5017749;28;20061;-95
2021/01/24 09:53:11;;;;;;;1999.90;999.90;;;2.60;99.90;;;;;;5018036;28;20065;-94
2021/01/24 09:55:53;;;;;;;1999.90;999.90;;;2.60;99.90;;;;;;5017288;28;20061;-93
2021/01/24 09:58:23;;;;;;;1999.90;999.90;;;2.70;99.90;;;;;;5017201;28;20104;-94
2021/01/24 10:01:01;;;;;;;1999.90;999.90;;;2.70;99.90;;;;;;5017843;28;20477;-94
2021/01/24 10:03:28;;;;;;;1999.90;999.90;;;2.70;99.90;;;;;;5017179;28;20149;-94
2021/01/24 10:05:57;;;;;;;1999.90;999.90;;;2.70;99.90;;;;;;5018332;28;20057;-95
2021/01/24 10:08:27;;;;;;;1999.90;999.90;;;2.70;99.90;;;;;;5017299;28;20073;-93
2021/01/24 10:11:13;;;;;;;1999.90;999.90;;;2.80;99.90;;;;;;5017590;28;20503;-94
2021/01/24 10:13:44;;;;;;;1999.90;999.90;;;2.70;99.90;;;;;;5017058;28;20054;-95
2021/01/24 10:16:21;;;;;;;1999.90;999.90;;;2.80;99.90;;;;;;5016531;28;20488;-94
2021/01/24 10:19:05;;;;;;;1999.90;999.90;;;2.90;99.90;;;;;;5017404;28;20085;-94
2021/01/24 19:40:35;;;;;;;1999.90;999.90;;;2.90;99.90;;;;;;4994308;28;20492;-94
2021/01/24 19:43:10;;;;;;;1999.90;999.90;;;2.90;99.90;;;;;;4996585;28;20058;-95
2021/01/24 19:49:10;;;;;;;1999.90;999.90;;;2.80;99.90;;;;;;4995919;28;20138;-95
2021/01/24 19:55:10;;;;;;;1999.90;999.90;;;2.80;99.90;;;;;;4935059;29;20563;-96
2021/01/24 19:57:45;;;;;;;1999.90;999.90;;;2.80;99.90;;;;;;4935943;29;20059;-96
2021/01/24 20:04:31;;;;;;;1999.90;999.90;;;2.70;99.90;;;;;;4937428;29;20099;-93
2021/01/24 20:07:17;;;;;;;1999.90;999.90;;;2.70;99.90;;;;;;4936516;29;20066;-95
2021/01/24 20:10:06;;;;;;;1999.90;999.90;;;2.60;99.90;;;;;;4963565;28;20118;-95
2021/01/24 20:12:45;;;;;;;1999.90;999.90;;;2.60;99.90;;;;;;4996395;28;20051;-93
2021/01/24 20:23:27;;;;;;;1999.90;999.90;;;2.50;99.90;;;;;;5418177;23;20132;-93
2021/01/24 20:28:44;;;;;;;1999.90;999.90;;;2.40;99.90;;;;;;5466867;23;20282;-93
2021/01/24 20:31:12;;;;;;;1999.90;999.90;;;2.40;99.90;;;;;;5039385;28;20514;-92
2021/01/24 20:33:56;;;;;;;1999.90;999.90;;;2.40;99.90;;;;;;5039817;28;20091;-93
2021/01/24 20:52:28;;;;;;;1999.90;999.90;;;2.40;99.90;;;;;;5018455;28;20393;-94
2021/01/24 20:55:06;;;;;;;1999.90;999.90;;;2.40;99.90;;;;;;5019888;28;20069;-95
2021/01/24 20:57:46;;;;;;;1999.90;999.90;;;2.40;99.90;;;;;;5022083;28;20058;-95
2021/01/24 21:00:17;;;;;;;1999.90;999.90;;;2.40;99.90;;;;;;5020327;28;20108;-95
2021/01/24 21:02:47;;;;;;;1999.90;999.90;;;2.40;99.90;;;;;;5020938;28;20057;-95
2021/01/24 21:05:19;;;;;;;1999.90;999.90;;;2.40;99.90;;;;;;5019857;28;20057;-96
2021/01/24 21:07:57;;;;;;;1999.90;999.90;;;2.40;99.90;;;;;;5022333;28;20559;-93
2021/01/24 21:10:28;;;;;;;1999.90;999.90;;;2.40;99.90;;;;;;5020932;28;20074;-94
2021/01/24 21:13:02;;;;;;;1999.90;999.90;;;2.30;99.90;;;;;;5025809;28;20121;-96
2021/01/24 21:15:31;;;;;;;1999.90;999.90;;;2.30;99.90;;;;;;5018701;28;20061;-95
2021/01/24 21:18:08;;;;;;;1999.90;999.90;;;2.30;99.90;;;;;;5018628;28;20064;-95
2021/01/24 21:20:39;;;;;;;1999.90;999.90;;;2.30;99.90;;;;;;5018147;28;20079;-94
2021/01/24 21:30:17;;;;;;;1999.90;999.90;;;2.30;99.90;;;;;;5017900;28;20108;-95
2021/01/24 21:32:55;;;;;;;1999.90;999.90;;;2.30;99.90;;;;;;5017860;28;20084;-94
2021/01/24 21:36:02;;;;;;;1999.90;999.90;;;2.30;99.90;;;;;;5018387;28;20068;-94
2021/01/24 21:38:33;;;;;;;1999.90;999.90;;;2.30;99.90;;;;;;5017572;28;20057;-94
2021/01/24 21:41:00;;;;;;;1999.90;999.90;;;2.30;99.90;;;;;;5017875;28;20074;-95
2021/01/24 21:43:38;;;;;;;1999.90;999.90;;;2.30;99.90;;;;;;5018888;28;20064;-95
2021/01/24 21:46:10;;;;;;;1999.90;999.90;;;2.30;99.90;;;;;;5018366;28;20064;-95
2021/01/24 21:48:53;;;;;;;1999.90;999.90;;;2.30;99.90;;;;;;5018428;28;20046;-95
2021/01/24 21:51:25;;;;;;;1999.90;999.90;;;2.20;99.90;;;;;;5017642;28;20139;-95
2021/01/24 21:53:55;;;;;;;1999.90;999.90;;;2.30;99.90;;;;;;5017125;28;20116;-95
2021/01/24 21:56:31;;;;;;;;;;;2.30;99.90;;;;;;5019278;28;20060;-96
2021/01/24 21:59:06;;;;;;;1999.90;999.90;;;2.30;99.90;;;;;;5018694;28;20368;-96
2021/01/24 22:01:34;;;;;;;1999.90;999.90;;;2.30;99.90;;;;;;5017389;28;20054;-94
2021/01/24 22:04:08;;;;;;;1999.90;999.90;;;2.30;99.90;;;;;;5017249;28;20111;-95
2021/01/24 22:06:47;;;;;;;1999.90;999.90;;;2.30;99.90;;;;;;5017228;28;20054;-95
2021/01/24 22:09:30;;;;;;;1999.90;999.90;;;2.30;99.90;;;;;;5017098;28;20499;-95
2021/01/24 22:12:02;;;;;;;1999.90;999.90;;;2.30;99.90;;;;;;5018309;28;20077;-95
2021/01/24 22:14:36;;;;;;;1999.90;999.90;;;2.30;99.90;;;;;;5017798;28;20425;-96
2021/01/24 22:24:57;;;;;;;1999.90;999.90;;;2.20;99.90;;;;;;4916735;28;20054;-95
2021/01/24 22:27:34;;;;;;;1999.90;999.90;;;2.20;99.90;;;;;;5017463;28;20068;-96
2021/01/24 22:39:58;;;;;;;1999.90;999.90;;;2.20;99.90;;;;;;5016009;28;20084;-95
2021/01/24 22:42:43;;;;;;;1999.90;999.90;;;2.10;99.90;;;;;;5017463;28;20062;-95
2021/01/24 22:48:35;;;;;;;1999.90;999.90;;;2.20;99.90;;;;;;4970285;28;20060;-95
2021/01/24 22:58:05;;;;;;;1999.90;999.90;;;2.10;99.90;;;;;;5016592;28;20041;-95
2021/01/24 23:01:05;;;;;;;1999.90;999.90;;;2.10;99.90;;;;;;5011469;28;20124;-95
2021/01/24 23:06:23;;;;;;;1999.90;999.90;;;2.00;99.90;;;;;;5014668;28;20057;-95
2021/01/24 23:09:11;;;;;;;;;;;2.10;99.90;;;;;;5016763;28;20297;-94
2021/01/24 23:11:57;;;;;;;1999.90;999.90;;;2.10;99.90;;;;;;5011946;28;20004;-95
2021/01/24 23:14:36;;;;;;;1999.90;999.90;;;2.00;99.90;;;;;;5016605;28;20081;-95
2021/01/24 23:17:06;;;;;;;1999.90;999.90;;;2.00;99.90;;;;;;5016186;28;20054;-94
2021/01/24 23:26:42;;;;;;;1999.90;999.90;;;2.00;99.90;;;;;;4918559;29;20209;-96
2021/01/24 23:29:34;;;;;;;1999.90;999.90;;;2.00;99.90;;;;;;5001948;28;20050;-95
2021/01/24 23:32:42;;;;;;;1999.90;999.90;;;2.00;99.90;;;;;;5018231;28;20081;-95
